Time;durP1;ratioP1;P1;durP2;ratioP2;P2;SDS_P1;SDS_P2;PMS_P1;PMS_P2;Temp;Humidity;BMP_temperature;BMP_pressure;BME280_temperature;BME280_humidity;BME280_pressure;Samples;Min_cycle;Max_cycle;Signal;HPM_P1;HPM_P2
2022/06/26 00:02:04;;;;;;;4.47;1.73;;;;;;;;;;5037459;28;20494;-81
2022/06/26 00:04:31;;;;;;;2.03;1.73;;;;;;;;;;5041836;28;20472;-81
2022/06/26 00:07:00;;;;;;;1.50;1.40;;;;;;;;;;5045450;28;20454;-80
2022/06/26 00:09:27;;;;;;;2.60;1.90;;;;;;;;;;5041280;28;20473;-80
2022/06/26 00:11:54;;;;;;;1.90;1.77;;;;;;;;;;5041981;28;20458;-82
2022/06/26 00:14:21;;;;;;;2.73;1.90;;;;;;;;;;5041971;28;20446;-82
2022/06/26 00:16:48;;;;;;;2.93;2.47;;;;;;;;;;5040858;28;20446;-82
2022/06/26 00:19:16;;;;;;;2.17;1.97;;;;;;;;;;5043161;28;20481;-81
2022/06/26 00:21:43;;;;;;;2.30;2.10;;;;;;;;;;5037960;28;21097;-83
2022/06/26 00:24:11;;;;;;;4.40;4.00;;;;;;;;;;5029489;28;20454;-83
2022/06/26 00:26:39;;;;;;;4.93;4.00;;;;;;;;;;5031755;28;20450;-80
2022/06/26 00:29:06;;;;;;;3.63;3.20;;;;;;;;;;5024671;28;20480;-81
2022/06/26 00:31:33;;;;;;;3.47;3.17;;;;;;;;;;5020286;28;20827;-81
2022/06/26 00:34:00;;;;;;;3.47;3.17;;;;;;;;;;5024998;28;20554;-81
2022/06/26 00:36:28;;;;;;;6.43;3.80;;;;;;;;;;5025153;28;20878;-81
2022/06/26 00:38:55;;;;;;;3.30;3.00;;;;;;;;;;5030769;28;20485;-81
2022/06/26 00:41:23;;;;;;;3.50;3.20;;;;;;;;;;5031012;28;20462;-82
2022/06/26 00:43:50;;;;;;;4.23;3.30;;;;;;;;;;5030713;28;20869;-82
2022/06/26 00:46:17;;;;;;;3.17;2.87;;;;;;;;;;5026978;28;20930;-82
2022/06/26 00:48:44;;;;;;;3.37;3.13;;;;;;;;;;5029191;28;20464;-82
2022/06/26 00:51:11;;;;;;;3.77;3.47;;;;;;;;;;5025391;28;20461;-82
2022/06/26 00:53:39;;;;;;;3.47;3.17;;;;;;;;;;5029152;28;20462;-82
2022/06/26 00:56:06;;;;;;;2.77;2.57;;;;;;;;;;5032183;28;20466;-82
2022/06/26 00:58:34;;;;;;;3.43;3.10;;;;;;;;;;5030202;28;20561;-82
2022/06/26 01:01:01;;;;;;;2.70;2.50;;;;;;;;;;5027345;28;20462;-82
2022/06/26 01:03:28;;;;;;;3.23;3.03;;;;;;;;;;5025792;28;20501;-82
2022/06/26 01:05:56;;;;;;;3.40;2.77;;;;;;;;;;5030599;28;20453;-83
2022/06/26 01:08:23;;;;;;;3.77;2.60;;;;;;;;;;5027987;28;20465;-83
2022/06/26 01:10:50;;;;;;;3.20;2.70;;;;;;;;;;5030953;28;20458;-83
2022/06/26 01:13:18;;;;;;;4.93;3.37;;;;;;;;;;5028560;28;20466;-83
2022/06/26 01:15:46;;;;;;;2.90;2.60;;;;;;;;;;5029318;28;20457;-81
2022/06/26 01:18:14;;;;;;;3.10;2.60;;;;;;;;;;5021729;28;20474;-81
2022/06/26 01:20:42;;;;;;;3.20;3.00;;;;;;;;;;5027522;28;20462;-81
2022/06/26 01:23:10;;;;;;;3.20;3.00;;;;;;;;;;5026646;28;20960;-83
2022/06/26 01:25:45;;;;;;;4.23;2.87;;;;;;;;;;5026316;28;20872;-83
2022/06/26 01:28:12;;;;;;;3.10;2.90;;;;;;;;;;5022659;28;20536;-82
2022/06/26 01:30:39;;;;;;;3.27;3.00;;;;;;;;;;5026251;28;20863;-81
2022/06/26 01:33:08;;;;;;;4.50;3.20;;;;;;;;;;5023964;28;20454;-82
2022/06/26 01:35:35;;;;;;;3.60;3.30;;;;;;;;;;5030171;28;20469;-80
2022/06/26 01:38:13;;;;;;;4.27;3.97;;;;;;;;;;5021643;28;20976;-82
2022/06/26 01:40:41;;;;;;;4.03;3.60;;;;;;;;;;5027890;28;20454;-82
2022/06/26 01:43:08;;;;;;;4.03;3.70;;;;;;;;;;5028892;28;20458;-82
2022/06/26 01:45:36;;;;;;;6.07;4.30;;;;;;;;;;5027113;28;20458;-81
2022/06/26 01:48:03;;;;;;;7.90;4.27;;;;;;;;;;5031978;28;20471;-84
2022/06/26 01:50:30;;;;;;;5.33;4.80;;;;;;;;;;5029158;28;20829;-81
2022/06/26 01:52:57;;;;;;;4.23;3.60;;;;;;;;;;5026864;28;20469;-82
2022/06/26 01:55:25;;;;;;;4.43;4.13;;;;;;;;;;5030162;28;20470;-83
2022/06/26 01:57:52;;;;;;;5.23;4.63;;;;;;;;;;5026888;28;20482;-80
2022/06/26 02:00:19;;;;;;;5.60;4.70;;;;;;;;;;5020803;28;20509;-82
2022/06/26 02:02:46;;;;;;;4.00;3.70;;;;;;;;;;5025359;28;20485;-81
2022/06/26 02:05:13;;;;;;;5.20;4.70;;;;;;;;;;5026764;28;20462;-82
2022/06/26 02:07:41;;;;;;;6.10;4.40;;;;;;;;;;5027371;28;20458;-83
2022/06/26 02:15:39;;;;;;;4.03;3.57;;;;;;;;;;5024757;28;20449;-84
2022/06/26 02:18:06;;;;;;;5.60;3.70;;;;;;;;;;5029508;28;20478;-84
2022/06/26 02:20:33;;;;;;;5.50;5.00;;;;;;;;;;5029564;28;21003;-82
2022/06/26 02:23:01;;;;;;;5.13;4.73;;;;;;;;;;5024689;28;20941;-83
2022/06/26 02:25:29;;;;;;;5.53;5.03;;;;;;;;;;5029315;28;20852;-82
2022/06/26 02:27:57;;;;;;;5.60;5.20;;;;;;;;;;5031067;28;20462;-82
2022/06/26 02:30:24;;;;;;;5.83;4.87;;;;;;;;;;5024843;28;20458;-79
2022/06/26 02:32:52;;;;;;;5.40;4.90;;;;;;;;;;5034398;28;20473;-78
2022/06/26 02:35:19;;;;;;;4.70;4.40;;;;;;;;;;5033386;28;20461;-78
2022/06/26 02:37:46;;;;;;;4.37;3.97;;;;;;;;;;5030742;28;20486;-79
2022/06/26 02:40:13;;;;;;;5.67;5.17;;;;;;;;;;5031774;28;20462;-78
2022/06/26 02:42:40;;;;;;;4.83;4.50;;;;;;;;;;5032324;28;20467;-78
2022/06/26 02:45:09;;;;;;;5.70;5.20;;;;;;;;;;5030129;28;20466;-80
2022/06/26 02:47:36;;;;;;;5.30;4.80;;;;;;;;;;5033568;28;20458;-79
2022/06/26 02:50:03;;;;;;;5.23;4.83;;;;;;;;;;5025445;28;20470;-82
2022/06/26 02:52:31;;;;;;;4.90;4.50;;;;;;;;;;5031686;28;20832;-82
2022/06/26 02:54:58;;;;;;;5.13;4.73;;;;;;;;;;5032654;28;20988;-83
2022/06/26 02:57:25;;;;;;;6.20;5.60;;;;;;;;;;5032701;28;20454;-82
2022/06/26 02:59:52;;;;;;;4.57;4.17;;;;;;;;;;5031399;28;20462;-83
2022/06/26 03:02:20;;;;;;;5.70;5.20;;;;;;;;;;5028893;28;20501;-83
2022/06/26 03:04:47;;;;;;;5.03;4.10;;;;;;;;;;5025461;28;20462;-82
2022/06/26 03:07:14;;;;;;;4.83;4.43;;;;;;;;;;5028557;28;20462;-82
2022/06/26 03:09:41;;;;;;;5.27;4.80;;;;;;;;;;5032245;28;21026;-81
2022/06/26 03:12:09;;;;;;;5.70;4.23;;;;;;;;;;5026264;28;22766;-80
2022/06/26 03:14:36;;;;;;;4.50;4.10;;;;;;;;;;5028917;28;20462;-82
2022/06/26 03:17:03;;;;;;;4.70;4.30;;;;;;;;;;5027747;28;20459;-82
2022/06/26 03:19:32;;;;;;;4.57;4.17;;;;;;;;;;5032238;28;20488;-82
2022/06/26 03:21:59;;;;;;;4.50;4.20;;;;;;;;;;5030034;28;20469;-81
2022/06/26 03:24:26;;;;;;;4.90;4.50;;;;;;;;;;5033668;28;20470;-82
2022/06/26 03:26:53;;;;;;;4.20;3.80;;;;;;;;;;5031420;28;20463;-81
2022/06/26 03:29:20;;;;;;;5.00;4.03;;;;;;;;;;5033405;28;20799;-82
2022/06/26 03:31:47;;;;;;;4.73;4.33;;;;;;;;;;5025788;28;20458;-82
2022/06/26 03:34:14;;;;;;;4.73;4.33;;;;;;;;;;5032391;28;20462;-81
2022/06/26 03:36:43;;;;;;;5.30;4.80;;;;;;;;;;5030845;28;20599;-82
2022/06/26 03:39:10;;;;;;;5.50;5.00;;;;;;;;;;5032347;28;20482;-81
2022/06/26 03:41:37;;;;;;;4.80;4.17;;;;;;;;;;5028305;28;20454;-82
2022/06/26 03:44:04;;;;;;;4.83;4.33;;;;;;;;;;5032144;28;20486;-82
2022/06/26 03:46:31;;;;;;;4.97;4.50;;;;;;;;;;5026702;28;21043;-82
2022/06/26 03:48:58;;;;;;;4.47;4.17;;;;;;;;;;5031259;28;20520;-81
2022/06/26 03:51:25;;;;;;;4.30;3.90;;;;;;;;;;5031244;28;20464;-81
2022/06/26 03:53:54;;;;;;;3.80;3.43;;;;;;;;;;5032006;28;21532;-82
2022/06/26 03:56:21;;;;;;;4.30;4.00;;;;;;;;;;5031730;28;20811;-82
2022/06/26 03:58:48;;;;;;;5.87;4.07;;;;;;;;;;5027601;28;20478;-82
2022/06/26 04:01:15;;;;;;;3.73;3.43;;;;;;;;;;5027523;28;20458;-82
2022/06/26 04:03:42;;;;;;;4.40;3.93;;;;;;;;;;5030279;28;20501;-82
2022/06/26 04:06:09;;;;;;;4.53;4.13;;;;;;;;;;5026100;28;20957;-82
2022/06/26 04:08:36;;;;;;;4.53;4.00;;;;;;;;;;5030267;28;20845;-82
2022/06/26 04:11:05;;;;;;;4.70;4.30;;;;;;;;;;5030684;28;20458;-82
2022/06/26 04:13:32;;;;;;;4.50;4.20;;;;;;;;;;5030869;28;20450;-82
2022/06/26 04:15:59;;;;;;;3.83;3.60;;;;;;;;;;5025587;28;20835;-82
2022/06/26 04:18:26;;;;;;;4.23;3.93;;;;;;;;;;5028376;28;20517;-82
2022/06/26 04:20:53;;;;;;;3.60;3.33;;;;;;;;;;5032044;28;20470;-82
2022/06/26 04:23:20;;;;;;;4.90;4.23;;;;;;;;;;5032700;28;20466;-82
2022/06/26 04:25:47;;;;;;;5.60;3.97;;;;;;;;;;5030900;28;20461;-81
2022/06/26 04:28:16;;;;;;;4.13;3.83;;;;;;;;;;5030432;28;20469;-81
2022/06/26 04:30:43;;;;;;;4.07;3.77;;;;;;;;;;5026567;28;20465;-81
2022/06/26 04:33:10;;;;;;;4.03;3.73;;;;;;;;;;5031189;28;20466;-81
2022/06/26 04:35:37;;;;;;;5.13;3.90;;;;;;;;;;5029097;28;20492;-81
2022/06/26 04:38:04;;;;;;;3.83;3.30;;;;;;;;;;5029449;28;20964;-81
2022/06/26 04:40:31;;;;;;;3.20;3.00;;;;;;;;;;5030481;28;20450;-81
2022/06/26 04:42:58;;;;;;;3.10;2.90;;;;;;;;;;5030245;28;20458;-81
2022/06/26 04:45:27;;;;;;;3.43;3.10;;;;;;;;;;5026935;28;20466;-80
2022/06/26 04:47:54;;;;;;;3.63;3.33;;;;;;;;;;5030879;28;20458;-83
2022/06/26 04:50:21;;;;;;;5.40;3.30;;;;;;;;;;5030624;28;20546;-82
2022/06/26 04:52:49;;;;;;;4.10;3.70;;;;;;;;;;5028688;28;20477;-82
2022/06/26 04:55:16;;;;;;;2.87;2.67;;;;;;;;;;5030327;28;20549;-82
2022/06/26 04:57:43;;;;;;;3.03;2.50;;;;;;;;;;5030033;28;20991;-82
2022/06/26 05:00:12;;;;;;;2.97;2.77;;;;;;;;;;5029159;28;20482;-82
2022/06/26 05:02:40;;;;;;;3.90;2.70;;;;;;;;;;5023831;28;20490;-81
2022/06/26 05:05:08;;;;;;;2.73;2.53;;;;;;;;;;5031430;28;20460;-82
2022/06/26 05:07:35;;;;;;;2.67;2.47;;;;;;;;;;5025993;28;20458;-82
2022/06/26 05:10:02;;;;;;;2.70;2.50;;;;;;;;;;5027202;28;20504;-81
2022/06/26 05:12:29;;;;;;;3.20;2.90;;;;;;;;;;5031374;28;20933;-82
2022/06/26 05:14:56;;;;;;;3.20;2.90;;;;;;;;;;5029177;28;20485;-82
2022/06/26 05:17:23;;;;;;;2.87;2.40;;;;;;;;;;5022818;28;20462;-82
2022/06/26 05:19:52;;;;;;;3.13;2.83;;;;;;;;;;5028360;28;21055;-82
2022/06/26 05:22:19;;;;;;;2.43;2.23;;;;;;;;;;5027044;28;20458;-81
2022/06/26 05:24:47;;;;;;;3.00;2.70;;;;;;;;;;5028728;28;20462;-81
2022/06/26 05:27:14;;;;;;;2.70;2.20;;;;;;;;;;5027832;28;20508;-82
2022/06/26 05:29:41;;;;;;;3.00;2.80;;;;;;;;;;5029469;28;20968;-82
2022/06/26 05:32:08;;;;;;;2.77;2.53;;;;;;;;;;5027976;28;20465;-81
2022/06/26 05:34:35;;;;;;;2.50;2.30;;;;;;;;;;5031297;28;20465;-84
2022/06/26 05:37:04;;;;;;;2.63;2.43;;;;;;;;;;5023941;28;20466;-83
2022/06/26 05:39:31;;;;;;;2.43;2.23;;;;;;;;;;5029281;28;20482;-84
2022/06/26 05:41:58;;;;;;;2.83;2.53;;;;;;;;;;5028085;28;20961;-81
2022/06/26 05:44:25;;;;;;;2.53;2.33;;;;;;;;;;5031251;28;20466;-81
2022/06/26 05:46:52;;;;;;;2.40;2.20;;;;;;;;;;5027088;28;20458;-82
2022/06/26 05:49:19;;;;;;;3.80;2.70;;;;;;;;;;5030674;28;20880;-82
2022/06/26 05:51:46;;;;;;;2.40;2.20;;;;;;;;;;5028301;28;20945;-82
2022/06/26 05:54:14;;;;;;;6.53;2.67;;;;;;;;;;5028921;28;20470;-82
2022/06/26 05:56:41;;;;;;;2.23;2.03;;;;;;;;;;5029119;28;20446;-82
2022/06/26 05:59:08;;;;;;;2.63;2.23;;;;;;;;;;5030131;28;21054;-82
2022/06/26 06:01:36;;;;;;;2.67;2.47;;;;;;;;;;5026678;28;20858;-82
2022/06/26 06:04:05;;;;;;;2.87;2.57;;;;;;;;;;5030324;28;20937;-84
2022/06/26 06:06:32;;;;;;;3.27;3.07;;;;;;;;;;5032855;28;20884;-83
2022/06/26 06:08:59;;;;;;;3.10;2.90;;;;;;;;;;5036112;28;20981;-85
2022/06/26 06:11:28;;;;;;;2.33;2.13;;;;;;;;;;5030371;28;20954;-84
2022/06/26 06:13:55;;;;;;;2.77;2.47;;;;;;;;;;5028917;28;20458;-84
2022/06/26 06:16:22;;;;;;;2.57;2.33;;;;;;;;;;5033576;28;21062;-84
2022/06/26 06:18:49;;;;;;;2.90;2.53;;;;;;;;;;5026916;28;20509;-84
2022/06/26 06:21:16;;;;;;;4.33;3.10;;;;;;;;;;5036082;28;20991;-84
2022/06/26 06:23:43;;;;;;;3.00;2.63;;;;;;;;;;5031609;28;20446;-83
2022/06/26 06:26:11;;;;;;;3.57;3.27;;;;;;;;;;5036316;28;20449;-83
2022/06/26 06:28:39;;;;;;;3.10;2.60;;;;;;;;;;5036760;28;20531;-84
2022/06/26 06:31:06;;;;;;;3.20;2.90;;;;;;;;;;5031375;28;20474;-84
2022/06/26 06:33:33;;;;;;;3.53;3.23;;;;;;;;;;5032734;28;20458;-82
2022/06/26 06:36:00;;;;;;;3.03;2.83;;;;;;;;;;5037466;28;20771;-84
2022/06/26 06:38:27;;;;;;;2.90;2.70;;;;;;;;;;5031885;28;20953;-83
2022/06/26 06:40:54;;;;;;;2.80;2.60;;;;;;;;;;5034717;28;20488;-83
2022/06/26 06:43:22;;;;;;;3.30;3.00;;;;;;;;;;5033211;28;20552;-83
2022/06/26 06:45:50;;;;;;;3.93;3.63;;;;;;;;;;5032628;28;20462;-83
2022/06/26 06:48:17;;;;;;;5.60;3.43;;;;;;;;;;5035936;28;20451;-82
2022/06/26 06:50:44;;;;;;;3.67;3.37;;;;;;;;;;5030898;28;20509;-82
2022/06/26 06:53:12;;;;;;;4.47;3.10;;;;;;;;;;5026552;28;20493;-81
2022/06/26 06:55:39;;;;;;;3.83;3.50;;;;;;;;;;5032392;28;20466;-81
2022/06/26 06:58:07;;;;;;;2.67;2.47;;;;;;;;;;5037810;28;20925;-80
2022/06/26 07:00:35;;;;;;;3.60;3.30;;;;;;;;;;5032797;28;20494;-83
2022/06/26 07:03:04;;;;;;;3.10;2.90;;;;;;;;;;5032024;28;20477;-84
2022/06/26 07:05:31;;;;;;;3.20;2.87;;;;;;;;;;5034759;28;20458;-84
2022/06/26 07:07:58;;;;;;;3.50;3.20;;;;;;;;;;5033616;28;20457;-82
2022/06/26 07:10:25;;;;;;;3.63;3.33;;;;;;;;;;5023296;28;20455;-84
2022/06/26 07:12:53;;;;;;;4.07;3.33;;;;;;;;;;5030124;28;20457;-83
2022/06/26 07:15:21;;;;;;;3.47;3.17;;;;;;;;;;5031997;28;20961;-83
2022/06/26 07:17:48;;;;;;;2.80;2.60;;;;;;;;;;5030214;28;20817;-84
2022/06/26 07:20:16;;;;;;;2.30;2.10;;;;;;;;;;5032387;28;20489;-84
2022/06/26 07:22:43;;;;;;;3.10;2.70;;;;;;;;;;5031183;28;20473;-84
2022/06/26 07:25:11;;;;;;;3.20;3.00;;;;;;;;;;5032484;28;20497;-84
2022/06/26 07:27:38;;;;;;;2.73;2.53;;;;;;;;;;5030047;28;20470;-84
2022/06/26 07:30:05;;;;;;;2.53;2.33;;;;;;;;;;5021100;28;20999;-85
2022/06/26 07:32:32;;;;;;;2.53;2.10;;;;;;;;;;5031529;28;20457;-85
2022/06/26 07:35:00;;;;;;;3.70;2.70;;;;;;;;;;5029783;28;20853;-84
2022/06/26 07:37:28;;;;;;;2.90;2.60;;;;;;;;;;5031617;28;20494;-85
2022/06/26 07:39:56;;;;;;;3.83;3.63;;;;;;;;;;5030680;28;20489;-84
2022/06/26 07:42:23;;;;;;;2.90;2.70;;;;;;;;;;5031563;28;20971;-84
2022/06/26 07:44:50;;;;;;;2.80;2.60;;;;;;;;;;5034085;28;20488;-84
2022/06/26 07:47:17;;;;;;;3.13;2.80;;;;;;;;;;5024573;28;20458;-83
2022/06/26 07:49:44;;;;;;;2.67;2.47;;;;;;;;;;5027375;28;20821;-83
2022/06/26 07:52:11;;;;;;;3.63;3.33;;;;;;;;;;5025560;28;20987;-84
2022/06/26 07:54:41;;;;;;;3.67;3.07;;;;;;;;;;5024316;28;20466;-82
2022/06/26 07:57:08;;;;;;;3.17;2.87;;;;;;;;;;5029264;28;20465;-83
2022/06/26 07:59:35;;;;;;;2.73;2.53;;;;;;;;;;5025911;28;20481;-84
2022/06/26 08:02:02;;;;;;;3.93;3.60;;;;;;;;;;5029229;28;20494;-83
2022/06/26 08:04:29;;;;;;;3.03;2.73;;;;;;;;;;5024654;28;20463;-83
2022/06/26 08:06:56;;;;;;;4.40;4.00;;;;;;;;;;5022348;28;20546;-84
2022/06/26 08:09:23;;;;;;;2.80;2.60;;;;;;;;;;5024599;28;20524;-83
2022/06/26 08:11:52;;;;;;;3.20;3.00;;;;;;;;;;5026887;28;20439;-83
2022/06/26 08:14:19;;;;;;;3.20;2.90;;;;;;;;;;5024376;28;20466;-80
2022/06/26 08:16:46;;;;;;;3.50;3.20;;;;;;;;;;5021705;28;20451;-81
2022/06/26 08:19:13;;;;;;;2.90;2.70;;;;;;;;;;5024294;28;20457;-81
2022/06/26 08:24:38;;;;;;;2.97;2.77;;;;;;;;;;4945291;29;20446;-82
2022/06/26 08:27:07;;;;;;;3.37;3.07;;;;;;;;;;5005399;28;20462;-81
2022/06/26 08:29:34;;;;;;;3.20;2.63;;;;;;;;;;5025278;28;20458;-82
2022/06/26 08:32:01;;;;;;;3.30;3.00;;;;;;;;;;5024562;28;20446;-82
2022/06/26 08:34:29;;;;;;;3.83;2.67;;;;;;;;;;5025389;28;20471;-83
2022/06/26 08:36:59;;;;;;;4.23;2.87;;;;;;;;;;5025645;28;20446;-86
2022/06/26 08:39:26;;;;;;;3.10;2.90;;;;;;;;;;5031365;28;20484;-83
2022/06/26 08:41:54;;;;;;;3.53;3.23;;;;;;;;;;5025238;28;20454;-86
2022/06/26 08:44:23;;;;;;;3.40;3.10;;;;;;;;;;5031015;28;21024;-83
2022/06/26 08:46:50;;;;;;;2.80;2.60;;;;;;;;;;5023831;28;20557;-83
2022/06/26 08:49:20;;;;;;;2.80;2.60;;;;;;;;;;5024137;28;20449;-83
2022/06/26 08:51:48;;;;;;;2.63;2.43;;;;;;;;;;5025714;28;20488;-83
2022/06/26 08:54:16;;;;;;;2.90;2.70;;;;;;;;;;5026160;28;20450;-82
2022/06/26 08:56:43;;;;;;;3.07;2.87;;;;;;;;;;5025081;28;20462;-80
2022/06/26 08:59:10;;;;;;;3.30;3.00;;;;;;;;;;5027645;28;20477;-81
2022/06/26 09:01:39;;;;;;;3.07;2.87;;;;;;;;;;5024191;28;20490;-80
2022/06/26 09:04:07;;;;;;;3.77;3.47;;;;;;;;;;5022623;28;20474;-84
2022/06/26 09:06:34;;;;;;;3.00;2.80;;;;;;;;;;5025501;28;20447;-86
2022/06/26 09:09:01;;;;;;;2.23;2.07;;;;;;;;;;5028352;28;20462;-82
2022/06/26 09:11:38;;;;;;;2.80;2.63;;;;;;;;;;5030543;28;20458;-86
2022/06/26 09:14:05;;;;;;;2.90;2.70;;;;;;;;;;5029215;28;20449;-86
2022/06/26 09:16:33;;;;;;;3.43;3.13;;;;;;;;;;5018182;28;20816;-89
2022/06/26 09:19:08;;;;;;;4.07;2.90;;;;;;;;;;5028457;28;20774;-88
2022/06/26 09:21:35;;;;;;;2.97;2.77;;;;;;;;;;5027229;28;20469;-88
2022/06/26 09:24:02;;;;;;;6.17;3.10;;;;;;;;;;5028880;28;20446;-86
2022/06/26 09:26:29;;;;;;;2.40;2.20;;;;;;;;;;5028292;28;20957;-86
2022/06/26 09:28:56;;;;;;;2.53;2.40;;;;;;;;;;5029253;28;20801;-88
2022/06/26 09:31:24;;;;;;;2.97;2.77;;;;;;;;;;5022880;28;20450;-88
2022/06/26 09:33:52;;;;;;;2.53;2.30;;;;;;;;;;5030662;28;20465;-88
2022/06/26 09:36:21;;;;;;;2.70;2.50;;;;;;;;;;5032073;28;20439;-84
2022/06/26 09:38:52;;;;;;;2.67;2.47;;;;;;;;;;5025731;28;20469;-87
2022/06/26 09:41:29;;;;;;;2.33;2.23;;;;;;;;;;5029550;28;20493;-87
2022/06/26 09:43:57;;;;;;;3.20;2.60;;;;;;;;;;5027663;28;20446;-87
2022/06/26 09:46:29;;;;;;;2.87;2.67;;;;;;;;;;5029664;28;20454;-85
2022/06/26 09:48:57;;;;;;;2.50;2.30;;;;;;;;;;5028249;28;20489;-86
2022/06/26 09:51:25;;;;;;;3.13;2.23;;;;;;;;;;5029812;28;20458;-85
2022/06/26 09:53:53;;;;;;;2.37;2.27;;;;;;;;;;5026205;28;20496;-87
2022/06/26 09:56:20;;;;;;;2.73;2.53;;;;;;;;;;5030057;28;20458;-86
2022/06/26 09:58:47;;;;;;;3.40;2.57;;;;;;;;;;5030366;28;20483;-87
2022/06/26 10:06:46;;;;;;;2.50;2.37;;;;;;;;;;5028899;28;20481;-87
2022/06/26 10:09:13;;;;;;;2.87;2.67;;;;;;;;;;5027997;28;20446;-89
2022/06/26 10:11:42;;;;;;;2.73;2.60;;;;;;;;;;5028723;28;20470;-88
2022/06/26 10:14:12;;;;;;;2.77;2.57;;;;;;;;;;5028512;28;20570;-85
2022/06/26 10:16:58;;;;;;;3.10;2.77;;;;;;;;;;5023006;28;20474;-87
2022/06/26 10:19:28;;;;;;;3.50;3.30;;;;;;;;;;5022707;28;20457;-85
2022/06/26 10:21:57;;;;;;;2.70;2.50;;;;;;;;;;5021733;28;20474;-85
2022/06/26 10:24:25;;;;;;;3.07;2.87;;;;;;;;;;5029281;28;20462;-86
2022/06/26 10:26:53;;;;;;;2.40;2.30;;;;;;;;;;5023256;28;20820;-87
2022/06/26 10:29:20;;;;;;;2.50;2.40;;;;;;;;;;5027389;28;20545;-87
2022/06/26 10:31:48;;;;;;;2.70;2.50;;;;;;;;;;5029450;28;20979;-81
2022/06/26 10:34:17;;;;;;;3.23;3.03;;;;;;;;;;5029444;28;20995;-83
2022/06/26 10:36:46;;;;;;;3.33;3.07;;;;;;;;;;5028327;28;20557;-87
2022/06/26 10:39:14;;;;;;;3.03;2.80;;;;;;;;;;5030151;28;20489;-81
2022/06/26 10:44:35;;;;;;;3.13;2.93;;;;;;;;;;5032316;28;20429;-85
2022/06/26 10:47:02;;;;;;;4.83;4.43;;;;;;;;;;5024567;28;20493;-82
2022/06/26 10:49:29;;;;;;;3.00;2.80;;;;;;;;;;5030405;28;20825;-83
2022/06/26 10:51:56;;;;;;;3.27;3.07;;;;;;;;;;5029601;28;20458;-82
2022/06/26 10:54:27;;;;;;;3.90;3.50;;;;;;;;;;5030508;28;20462;-83
2022/06/26 10:56:57;;;;;;;3.80;3.10;;;;;;;;;;5032659;28;20497;-84
2022/06/26 10:59:24;;;;;;;3.47;3.17;;;;;;;;;;5033915;28;20453;-83
2022/06/26 11:01:52;;;;;;;4.40;3.50;;;;;;;;;;5033760;28;20844;-82
2022/06/26 11:04:20;;;;;;;3.80;3.50;;;;;;;;;;5027209;28;20473;-84
2022/06/26 11:06:47;;;;;;;3.40;3.10;;;;;;;;;;5032407;28;20454;-83
2022/06/26 11:09:17;;;;;;;3.90;3.60;;;;;;;;;;5034299;28;20826;-83
2022/06/26 11:11:51;;;;;;;3.30;3.00;;;;;;;;;;5032594;28;20462;-83
2022/06/26 11:14:18;;;;;;;3.23;3.03;;;;;;;;;;5030878;28;20463;-84
2022/06/26 11:16:46;;;;;;;3.13;2.93;;;;;;;;;;5019080;28;20951;-84
2022/06/26 11:19:22;;;;;;;3.90;3.60;;;;;;;;;;5034887;28;20825;-83
2022/06/26 11:21:49;;;;;;;3.23;2.90;;;;;;;;;;5032416;28;20478;-84
2022/06/26 11:24:17;;;;;;;3.17;2.97;;;;;;;;;;5032863;28;20486;-84
2022/06/26 11:26:44;;;;;;;3.20;3.00;;;;;;;;;;5033068;28;20967;-84
2022/06/26 11:29:13;;;;;;;2.67;2.37;;;;;;;;;;5034017;28;20447;-83
2022/06/26 11:31:47;;;;;;;2.70;2.50;;;;;;;;;;5024058;28;20826;-84
2022/06/26 11:34:15;;;;;;;2.80;2.60;;;;;;;;;;5023944;28;20528;-84
2022/06/26 11:36:50;;;;;;;3.17;2.97;;;;;;;;;;5030620;28;20454;-84
2022/06/26 11:39:17;;;;;;;3.20;3.00;;;;;;;;;;5030249;28;20464;-84
2022/06/26 11:41:46;;;;;;;3.23;2.93;;;;;;;;;;5030402;28;20479;-84
2022/06/26 11:44:15;;;;;;;3.13;2.83;;;;;;;;;;5032437;28;20464;-84
2022/06/26 11:46:43;;;;;;;3.37;3.10;;;;;;;;;;5024596;28;20451;-84
2022/06/26 11:49:12;;;;;;;3.23;2.93;;;;;;;;;;5047402;28;20462;-83
2022/06/26 11:51:39;;;;;;;3.20;3.00;;;;;;;;;;5031702;28;20454;-83
2022/06/26 11:54:06;;;;;;;2.60;2.40;;;;;;;;;;5025941;28;20482;-84
2022/06/26 11:56:34;;;;;;;2.57;2.37;;;;;;;;;;5032601;28;20817;-83
2022/06/26 11:59:02;;;;;;;3.73;2.70;;;;;;;;;;5027450;28;20446;-84
2022/06/26 12:01:34;;;;;;;2.80;2.60;;;;;;;;;;5026063;28;20510;-84
2022/06/26 12:04:02;;;;;;;2.60;2.40;;;;;;;;;;5029454;28;20533;-83
2022/06/26 12:06:33;;;;;;;3.20;2.43;;;;;;;;;;5028561;28;20461;-83
2022/06/26 12:09:01;;;;;;;2.57;2.37;;;;;;;;;;5033425;28;20549;-83
2022/06/26 12:11:29;;;;;;;3.00;2.80;;;;;;;;;;5031843;28;20825;-83
2022/06/26 12:13:56;;;;;;;3.67;3.37;;;;;;;;;;5032862;28;20454;-84
2022/06/26 12:16:23;;;;;;;2.83;2.63;;;;;;;;;;5027158;28;20500;-83
2022/06/26 12:18:52;;;;;;;2.70;2.50;;;;;;;;;;5031281;28;20459;-83
2022/06/26 12:21:20;;;;;;;3.10;2.30;;;;;;;;;;5029058;28;20522;-83
2022/06/26 12:23:50;;;;;;;3.30;3.10;;;;;;;;;;5031530;28;20462;-83
2022/06/26 12:26:18;;;;;;;5.97;3.73;;;;;;;;;;5026465;28;20454;-83
2022/06/26 12:28:49;;;;;;;4.77;3.50;;;;;;;;;;5027484;28;20446;-82
2022/06/26 12:31:17;;;;;;;4.17;3.67;;;;;;;;;;5024940;28;20458;-84
2022/06/26 12:33:44;;;;;;;4.53;3.33;;;;;;;;;;5025046;28;20457;-84
2022/06/26 12:36:13;;;;;;;5.60;3.57;;;;;;;;;;5024735;28;20462;-83
2022/06/26 12:38:40;;;;;;;3.83;3.43;;;;;;;;;;5022596;28;20807;-84
2022/06/26 12:41:16;;;;;;;3.90;3.57;;;;;;;;;;5032921;28;20470;-80
2022/06/26 12:43:46;;;;;;;4.30;3.40;;;;;;;;;;5026442;28;20457;-82
2022/06/26 12:46:13;;;;;;;4.00;3.53;;;;;;;;;;5031277;28;20489;-84
2022/06/26 12:48:40;;;;;;;3.33;3.03;;;;;;;;;;5027245;28;20481;-86
2022/06/26 12:51:07;;;;;;;4.90;3.20;;;;;;;;;;5027989;28;20455;-86
2022/06/26 12:53:36;;;;;;;3.20;3.00;;;;;;;;;;5030888;28;20492;-86
2022/06/26 12:56:03;;;;;;;3.67;3.00;;;;;;;;;;5031904;28;20489;-86
2022/06/26 12:58:30;;;;;;;4.27;3.70;;;;;;;;;;5031309;28;20465;-86
2022/06/26 13:00:57;;;;;;;2.60;2.40;;;;;;;;;;5029615;28;20478;-86
2022/06/26 13:03:25;;;;;;;2.80;2.60;;;;;;;;;;5021173;28;20489;-83
2022/06/26 13:05:53;;;;;;;3.90;2.77;;;;;;;;;;5020220;28;20470;-84
2022/06/26 13:08:20;;;;;;;2.50;2.30;;;;;;;;;;5025159;28;20454;-84
2022/06/26 13:10:48;;;;;;;2.50;2.30;;;;;;;;;;5028862;28;21039;-84
2022/06/26 13:13:15;;;;;;;3.47;3.17;;;;;;;;;;5024472;28;20826;-83
2022/06/26 13:15:42;;;;;;;2.97;2.50;;;;;;;;;;5023430;28;20461;-84
2022/06/26 13:18:09;;;;;;;2.67;2.47;;;;;;;;;;5024969;28;20973;-84
2022/06/26 13:20:36;;;;;;;3.13;2.90;;;;;;;;;;5018199;28;20743;-85
2022/06/26 13:23:04;;;;;;;2.80;2.50;;;;;;;;;;5018836;28;20493;-85
2022/06/26 13:25:31;;;;;;;2.97;2.77;;;;;;;;;;5021305;28;20455;-85
2022/06/26 13:27:59;;;;;;;2.87;2.67;;;;;;;;;;5024862;28;20463;-82
2022/06/26 13:30:26;;;;;;;2.70;2.50;;;;;;;;;;5022755;28;20454;-80
2022/06/26 13:32:53;;;;;;;2.60;2.40;;;;;;;;;;5016966;28;20969;-79
2022/06/26 13:35:20;;;;;;;2.07;1.87;;;;;;;;;;5019737;28;20463;-78
2022/06/26 13:37:47;;;;;;;2.60;2.40;;;;;;;;;;5021297;28;20997;-82
2022/06/26 13:40:14;;;;;;;2.80;2.60;;;;;;;;;;5022616;28;20975;-79
2022/06/26 13:42:42;;;;;;;2.03;1.93;;;;;;;;;;5020562;28;20547;-83
2022/06/26 13:45:11;;;;;;;2.57;2.37;;;;;;;;;;5021171;28;20453;-80
2022/06/26 13:47:41;;;;;;;2.83;2.63;;;;;;;;;;5023586;28;20463;-81
2022/06/26 13:50:09;;;;;;;2.50;2.07;;;;;;;;;;5022962;28;20457;-81
2022/06/26 13:52:36;;;;;;;2.40;2.20;;;;;;;;;;5020031;28;20461;-80
2022/06/26 13:55:04;;;;;;;2.63;2.20;;;;;;;;;;5020909;28;20528;-83
2022/06/26 13:57:31;;;;;;;2.67;2.10;;;;;;;;;;5022354;28;20486;-80
2022/06/26 13:59:58;;;;;;;2.00;1.90;;;;;;;;;;5024042;28;21175;-81
2022/06/26 14:02:26;;;;;;;1.83;1.73;;;;;;;;;;5021935;28;21008;-81
2022/06/26 14:04:53;;;;;;;2.33;2.23;;;;;;;;;;5022538;28;20458;-81
2022/06/26 14:07:20;;;;;;;2.07;1.87;;;;;;;;;;5019474;28;20477;-83
2022/06/26 14:09:47;;;;;;;2.20;2.00;;;;;;;;;;5016689;28;20454;-81
2022/06/26 14:12:14;;;;;;;2.20;2.00;;;;;;;;;;5023712;28;20454;-83
2022/06/26 14:14:42;;;;;;;2.37;2.17;;;;;;;;;;5019206;28;20451;-82
2022/06/26 14:17:09;;;;;;;3.50;2.30;;;;;;;;;;5020584;28;20473;-81
2022/06/26 14:19:37;;;;;;;3.13;2.83;;;;;;;;;;5021835;28;20466;-81
2022/06/26 14:27:34;;;;;;;1.93;1.83;;;;;;;;;;5024124;28;20844;-82
2022/06/26 14:30:01;;;;;;;2.50;2.30;;;;;;;;;;5020834;28;20451;-81
2022/06/26 14:32:28;;;;;;;1.80;1.70;;;;;;;;;;5024888;28;20454;-82
2022/06/26 14:34:56;;;;;;;2.40;2.10;;;;;;;;;;5019045;28;20451;-81
2022/06/26 14:37:23;;;;;;;2.20;2.07;;;;;;;;;;5028859;28;20967;-79
2022/06/26 14:39:51;;;;;;;2.20;2.00;;;;;;;;;;5028481;28;20442;-81
2022/06/26 14:42:18;;;;;;;2.30;2.10;;;;;;;;;;5029799;28;20560;-81
2022/06/26 14:44:45;;;;;;;2.10;1.90;;;;;;;;;;5029500;28;20446;-81
2022/06/26 14:47:12;;;;;;;2.47;2.30;;;;;;;;;;5029940;28;20470;-82
2022/06/26 14:49:39;;;;;;;2.27;2.07;;;;;;;;;;5027006;28;20961;-79
2022/06/26 14:52:08;;;;;;;3.17;2.00;;;;;;;;;;5029471;28;20455;-80
2022/06/26 14:54:35;;;;;;;2.10;1.83;;;;;;;;;;5031700;28;20457;-81
2022/06/26 14:57:02;;;;;;;2.57;1.90;;;;;;;;;;5031490;28;21009;-82
2022/06/26 14:59:29;;;;;;;2.73;2.53;;;;;;;;;;5029273;28;20449;-83
2022/06/26 15:01:56;;;;;;;1.93;1.83;;;;;;;;;;5025128;28;20489;-81
2022/06/26 15:04:23;;;;;;;1.80;1.70;;;;;;;;;;5030173;28;20821;-83
2022/06/26 15:06:50;;;;;;;2.30;2.20;;;;;;;;;;5030727;28;20454;-83
2022/06/26 15:09:19;;;;;;;2.50;2.20;;;;;;;;;;5030046;28;20457;-82